Time,TemperatureF,DewpointF,PressureIn,WindDirection,WindDirectionDegrees,WindSpeedMPH,WindSpeedGustMPH,Humidity,HourlyPrecipIn,Conditions,Clouds,dailyrainin,SoftwareType,DateUTC
2013-07-10 00:06:00,74.9,73.0,29.82,South,189,0.0,0.0,95,0.00,,,0.00,weatherlink.com 1.10,2013-07-10 05:06:00,
2013-07-10 00:21:00,74.8,73.0,29.82,South,189,0.0,1.0,95,0.00,,,0.00,weatherlink.com 1.10,2013-07-10 05:21:00,
2013-07-10 00:36:00,74.8,73.0,29.82,South,189,0.0,1.0,95,0.00,,,0.00,weatherlink.com 1.10,2013-07-10 05:36:00,
2013-07-10 00:51:00,74.7,73.0,29.82,South,189,0.0,0.0,95,0.00,,,0.00,weatherlink.com 1.10,2013-07-10 05:51:00,
2013-07-10 01:06:00,74.4,73.0,29.82,South,189,0.0,0.0,96,0.00,,,0.00,weatherlink.com 1.10,2013-07-10 06:06:00,
2013-07-10 01:21:00,74.3,73.0,29.81,South,189,0.0,0.0,96,0.00,,,0.00,weatherlink.com 1.10,2013-07-10 06:21:00,
2013-07-10 01:36:00,74.1,73.0,29.81,South,189,0.0,0.0,96,0.00,,,0.00,weatherlink.com 1.10,2013-07-10 06:36:00,
2013-07-10 01:51:00,73.8,73.0,29.81,South,189,0.0,0.0,96,0.00,,,0.00,weatherlink.com 1.10,2013-07-10 06:51:00,
2013-07-10 02:06:00,73.6,72.0,29.81,South,189,0.0,0.0,96,0.00,,,0.00,weatherlink.com 1.10,2013-07-10 07:06:00,
2013-07-10 02:21:00,73.5,73.0,29.81,South,189,0.0,0.0,97,0.00,,,0.00,weatherlink.com 1.10,2013-07-10 07:21:00,
2013-07-10 02:36:00,73.3,72.0,29.81,South,189,0.0,0.0,97,0.00,,,0.00,weatherlink.com 1.10,2013-07-10 07:36:00,
2013-07-10 02:51:00,73.1,72.0,29.81,South,189,0.0,0.0,97,0.00,,,0.00,weatherlink.com 1.10,2013-07-10 07:51:00,
2013-07-10 03:06:00,72.9,72.0,29.81,South,189,0.0,0.0,97,0.00,,,0.00,weatherlink.com 1.10,2013-07-10 08:06:00,
2013-07-10 03:21:00,72.6,72.0,29.81,South,189,0.0,0.0,97,0.00,,,0.00,weatherlink.com 1.10,2013-07-10 08:21:00,
2013-07-10 03:36:00,72.6,72.0,29.81,South,189,0.0,0.0,97,0.00,,,0.00,weatherlink.com 1.10,2013-07-10 08:36:00,
2013-07-10 03:51:00,72.4,72.0,29.81,South,189,0.0,0.0,97,0.00,,,0.00,weatherlink.com 1.10,2013-07-10 08:51:00,
2013-07-10 04:06:00,72.1,71.0,29.81,SE,129,0.0,1.0,97,0.00,,,0.00,weatherlink.com 1.10,2013-07-10 09:06:00,
2013-07-10 04:21:00,71.9,71.0,29.82,SE,129,0.0,0.0,97,0.00,,,0.00,weatherlink.com 1.10,2013-07-10 09:21:00,
2013-07-10 04:36:00,71.6,71.0,29.82,WSW,240,0.0,1.0,97,0.00,,,0.00,weatherlink.com 1.10,2013-07-10 09:36:00,
2013-07-10 04:51:00,71.3,70.0,29.82,SSW,211,0.0,0.0,97,0.00,,,0.00,weatherlink.com 1.10,2013-07-10 09:51:00,
2013-07-10 05:06:00,71.2,70.0,29.83,SE,128,0.0,1.0,97,0.01,,,0.01,weatherlink.com 1.10,2013-07-10 10:06:00,
2013-07-10 05:21:00,71.2,70.0,29.82,SE,128,0.0,1.0,97,0.01,,,0.01,weatherlink.com 1.10,2013-07-10 10:21:00,
2013-07-10 05:36:00,71.1,70.0,29.82,NNW,348,2.0,3.0,97,0.01,,,0.01,weatherlink.com 1.10,2013-07-10 10:36:00,
2013-07-10 05:52:00,71.3,70.0,29.82,North,360,2.0,2.0,95,0.01,,,0.01,weatherlink.com 1.10,2013-07-10 10:52:00,
2013-07-10 06:07:00,71.3,70.0,29.82,North,5,0.0,3.0,94,0.00,,,0.01,weatherlink.com 1.10,2013-07-10 11:07:00,
2013-07-10 06:22:00,71.6,69.0,29.82,NNE,13,6.0,6.0,92,0.00,,,0.01,weatherlink.com 1.10,2013-07-10 11:22:00,
2013-07-10 06:37:00,71.8,69.0,29.83,North,355,0.0,4.0,91,0.00,,,0.01,weatherlink.com 1.10,2013-07-10 11:37:00,
2013-07-10 06:52:00,72.1,69.0,29.83,North,360,1.0,4.0,89,0.00,,,0.01,weatherlink.com 1.10,2013-07-10 11:52:00,
2013-07-10 07:07:00,71.9,69.0,29.83,NNE,12,3.0,4.0,89,0.00,,,0.01,weatherlink.com 1.10,2013-07-10 12:07:00,
2013-07-10 07:22:00,72.0,68.0,29.83,NNW,340,2.0,7.0,88,0.00,,,0.01,weatherlink.com 1.10,2013-07-10 12:22:00,
2013-07-10 07:37:00,71.8,68.0,29.83,NNE,13,3.0,6.0,87,0.00,,,0.01,weatherlink.com 1.10,2013-07-10 12:37:00,
2013-07-10 07:52:00,72.1,68.0,29.84,North,351,2.0,8.0,87,0.00,,,0.01,weatherlink.com 1.10,2013-07-10 12:52:00,
2013-07-10 08:07:00,72.6,67.0,29.84,North,355,1.0,9.0,83,0.00,,,0.01,weatherlink.com 1.10,2013-07-10 13:07:00,
2013-07-10 08:22:00,72.9,67.0,29.85,NNW,346,4.0,8.0,81,0.00,,,0.01,weatherlink.com 1.10,2013-07-10 13:22:00,
2013-07-10 08:37:00,73.1,66.0,29.86,NNW,337,4.0,12.0,78,0.00,,,0.01,weatherlink.com 1.10,2013-07-10 13:37:00,
2013-07-10 08:52:00,74.0,66.0,29.87,North,360,5.0,7.0,75,0.00,,,0.01,weatherlink.com 1.10,2013-07-10 13:52:00,
2013-07-10 09:07:00,74.0,65.0,29.87,NNW,346,3.0,7.0,74,0.00,,,0.01,weatherlink.com 1.10,2013-07-10 14:07:00,
2013-07-10 09:22:00,73.6,64.0,29.87,North,9,5.0,7.0,73,0.00,,,0.01,weatherlink.com 1.10,2013-07-10 14:22:00,
2013-07-10 09:37:00,73.2,64.0,29.87,North,360,4.0,8.0,73,0.00,,,0.01,weatherlink.com 1.10,2013-07-10 14:37:00,
2013-07-10 09:52:00,73.8,65.0,29.87,North,5,6.0,8.0,74,0.00,,,0.01,weatherlink.com 1.10,2013-07-10 14:52:00,
2013-07-10 10:07:00,72.8,64.0,29.88,NW,323,7.0,7.0,73,0.00,,,0.01,weatherlink.com 1.10,2013-07-10 15:07:00,
2013-07-10 10:22:00,72.7,62.0,29.88,NNE,14,5.0,9.0,70,0.00,,,0.01,weatherlink.com 1.10,2013-07-10 15:22:00,
2013-07-10 10:37:00,73.2,63.0,29.88,NNW,347,7.0,9.0,70,0.00,,,0.01,weatherlink.com 1.10,2013-07-10 15:37:00,
2013-07-10 10:52:00,73.3,62.0,29.88,North,355,7.0,10.0,67,0.00,,,0.01,weatherlink.com 1.10,2013-07-10 15:52:00,
2013-07-10 11:07:00,72.8,62.0,29.89,NW,320,2.0,7.0,69,0.00,,,0.01,weatherlink.com 1.10,2013-07-10 16:07:00,
2013-07-10 11:22:00,72.8,60.0,29.90,NNE,13,4.0,11.0,64,0.00,,,0.01,weatherlink.com 1.10,2013-07-10 16:22:00,
2013-07-10 11:37:00,73.4,60.0,29.90,North,350,2.0,9.0,64,0.00,,,0.01,weatherlink.com 1.10,2013-07-10 16:37:00,
2013-07-10 11:52:00,73.1,57.0,29.91,NNW,340,4.0,10.0,58,0.00,,,0.01,weatherlink.com 1.10,2013-07-10 16:52:00,
2013-07-10 12:07:00,73.3,57.0,29.92,NNE,17,3.0,8.0,57,0.00,,,0.01,weatherlink.com 1.10,2013-07-10 17:07:00,
2013-07-10 12:22:00,74.3,60.0,29.92,North,355,5.0,7.0,61,0.00,,,0.01,weatherlink.com 1.10,2013-07-10 17:22:00,
2013-07-10 12:37:00,74.7,59.0,29.93,NNE,13,3.0,8.0,59,0.00,,,0.01,weatherlink.com 1.10,2013-07-10 17:37:00,
2013-07-10 12:52:00,75.7,61.0,29.93,NW,321,1.0,6.0,60,0.00,,,0.01,weatherlink.com 1.10,2013-07-10 17:52:00,
2013-07-10 13:07:00,75.0,59.0,29.93,North,5,3.0,7.0,57,0.00,,,0.01,weatherlink.com 1.10,2013-07-10 18:07:00,
2013-07-10 13:22:00,74.9,59.0,29.93,North,9,3.0,8.0,58,0.00,,,0.01,weatherlink.com 1.10,2013-07-10 18:22:00,
2013-07-10 13:37:00,75.4,59.0,29.93,NW,316,2.0,6.0,58,0.00,,,0.01,weatherlink.com 1.10,2013-07-10 18:37:00,
2013-07-10 13:52:00,74.6,57.0,29.92,North,355,3.0,9.0,55,0.00,,,0.01,weatherlink.com 1.10,2013-07-10 18:52:00,
2013-07-10 14:07:00,75.3,57.0,29.93,NNW,329,3.0,7.0,54,0.00,,,0.01,weatherlink.com 1.10,2013-07-10 19:07:00,
2013-07-10 14:22:00,75.1,59.0,29.93,NNW,339,4.0,7.0,57,0.00,,,0.01,weatherlink.com 1.10,2013-07-10 19:22:00,
2013-07-10 14:37:00,75.3,58.0,29.93,North,355,5.0,7.0,56,0.00,,,0.01,weatherlink.com 1.10,2013-07-10 19:37:00,
2013-07-10 14:52:00,76.7,58.0,29.93,ENE,60,0.0,5.0,53,0.00,,,0.01,weatherlink.com 1.10,2013-07-10 19:52:00,
2013-07-10 15:07:00,76.5,59.0,29.93,North,5,3.0,7.0,54,0.00,,,0.01,weatherlink.com 1.10,2013-07-10 20:07:00,
2013-07-10 15:22:00,76.3,58.0,29.93,NNW,337,2.0,8.0,53,0.00,,,0.01,weatherlink.com 1.10,2013-07-10 20:22:00,
2013-07-10 15:38:00,75.7,59.0,29.93,WNW,297,1.0,5.0,56,0.00,,,0.01,weatherlink.com 1.10,2013-07-10 20:38:00,
2013-07-10 15:52:00,76.7,58.0,29.92,North,350,3.0,6.0,52,0.00,,,0.01,weatherlink.com 1.10,2013-07-10 20:52:00,
2013-07-10 16:08:00,76.2,57.0,29.92,NNE,17,4.0,9.0,51,0.00,,,0.01,weatherlink.com 1.10,2013-07-10 21:08:00,
2013-07-10 16:23:00,75.1,57.0,29.92,North,5,2.0,7.0,54,0.00,,,0.01,weatherlink.com 1.10,2013-07-10 21:23:00,
2013-07-10 16:38:00,75.0,56.0,29.92,North,5,5.0,9.0,52,0.00,,,0.01,weatherlink.com 1.10,2013-07-10 21:38:00,
2013-07-10 16:53:00,75.4,57.0,29.92,NNW,337,1.0,5.0,53,0.00,,,0.01,weatherlink.com 1.10,2013-07-10 21:53:00,
2013-07-10 17:08:00,74.8,57.0,29.92,NE,38,2.0,9.0,54,0.00,,,0.01,weatherlink.com 1.10,2013-07-10 22:08:00,
2013-07-10 17:23:00,75.1,58.0,29.91,NW,311,0.0,5.0,55,0.00,,,0.01,weatherlink.com 1.10,2013-07-10 22:23:00,
2013-07-10 17:38:00,74.8,56.0,29.91,NNE,13,6.0,6.0,53,0.00,,,0.01,weatherlink.com 1.10,2013-07-10 22:38:00,
2013-07-10 17:53:00,74.6,57.0,29.91,NNW,336,2.0,7.0,55,0.00,,,0.01,weatherlink.com 1.10,2013-07-10 22:53:00,
2013-07-10 18:08:00,74.4,57.0,29.91,NNE,24,4.0,6.0,55,0.00,,,0.01,weatherlink.com 1.10,2013-07-10 23:08:00,
2013-07-10 18:23:00,74.1,56.0,29.91,North,360,3.0,7.0,54,0.00,,,0.01,weatherlink.com 1.10,2013-07-10 23:23:00,
2013-07-10 18:38:00,74.0,57.0,29.91,NNW,332,3.0,5.0,55,0.00,,,0.01,weatherlink.com 1.10,2013-07-10 23:38:00,
2013-07-10 18:53:00,73.8,57.0,29.92,NE,37,1.0,5.0,55,0.00,,,0.01,weatherlink.com 1.10,2013-07-10 23:53:00,
2013-07-10 19:08:00,73.5,57.0,29.92,NNW,338,1.0,4.0,56,0.00,,,0.01,weatherlink.com 1.10,2013-07-11 00:08:00,
2013-07-10 19:23:00,73.1,57.0,29.92,North,5,4.0,5.0,57,0.00,,,0.01,weatherlink.com 1.10,2013-07-11 00:23:00,
2013-07-10 19:38:00,72.7,57.0,29.92,NNE,30,2.0,3.0,58,0.00,,,0.01,weatherlink.com 1.10,2013-07-11 00:38:00,
2013-07-10 19:53:00,72.2,57.0,29.92,NNE,22,0.0,2.0,59,0.00,,,0.01,weatherlink.com 1.10,2013-07-11 00:53:00,
2013-07-10 20:08:00,71.6,58.0,29.93,NNE,22,0.0,2.0,62,0.00,,,0.01,weatherlink.com 1.10,2013-07-11 01:08:00,
2013-07-10 20:23:00,70.4,58.0,29.93,NNE,22,0.0,1.0,65,0.00,,,0.01,weatherlink.com 1.10,2013-07-11 01:23:00,
2013-07-10 20:38:00,69.8,58.0,29.94,NNE,22,0.0,1.0,67,0.00,,,0.01,weatherlink.com 1.10,2013-07-11 01:38:00,
2013-07-10 20:53:00,69.1,59.0,29.94,NNE,22,0.0,1.0,70,0.00,,,0.01,weatherlink.com 1.10,2013-07-11 01:53:00,
2013-07-10 21:08:00,68.5,59.0,29.95,NNE,22,0.0,1.0,71,0.00,,,0.01,weatherlink.com 1.10,2013-07-11 02:08:00,
2013-07-10 21:23:00,67.8,58.0,29.96,NNE,22,1.0,1.0,70,0.00,,,0.01,weatherlink.com 1.10,2013-07-11 02:23:00,
2013-07-10 21:38:00,67.1,58.0,29.96,NNE,22,0.0,1.0,72,0.00,,,0.01,weatherlink.com 1.10,2013-07-11 02:38:00,
2013-07-10 21:53:00,66.9,58.0,29.97,NNE,22,0.0,1.0,74,0.00,,,0.01,weatherlink.com 1.10,2013-07-11 02:53:00,
2013-07-10 22:08:00,65.8,58.0,29.97,NNE,22,0.0,1.0,75,0.00,,,0.01,weatherlink.com 1.10,2013-07-11 03:08:00,
2013-07-10 22:23:00,65.9,58.0,29.97,NNE,22,0.0,1.0,75,0.00,,,0.01,weatherlink.com 1.10,2013-07-11 03:23:00,
2013-07-10 22:38:00,65.6,58.0,29.97,NNE,22,0.0,0.0,75,0.00,,,0.01,weatherlink.com 1.10,2013-07-11 03:38:00,
2013-07-10 22:53:00,65.2,57.0,29.98,NNE,22,0.0,0.0,75,0.00,,,0.01,weatherlink.com 1.10,2013-07-11 03:53:00,
2013-07-10 23:08:00,64.7,57.0,29.98,NNE,22,0.0,1.0,77,0.00,,,0.01,weatherlink.com 1.10,2013-07-11 04:08:00,
2013-07-10 23:23:00,64.9,57.0,29.98,NNE,22,1.0,2.0,76,0.00,,,0.01,weatherlink.com 1.10,2013-07-11 04:23:00,
2013-07-10 23:38:00,65.0,57.0,29.99,NNE,22,1.0,1.0,76,0.00,,,0.01,weatherlink.com 1.10,2013-07-11 04:38:00,
2013-07-10 23:53:00,64.6,57.0,29.99,NNE,22,0.0,2.0,77,0.00,,,0.01,weatherlink.com 1.10,2013-07-11 04:53:00,